Time;durP1;ratioP1;P1;durP2;ratioP2;P2;SDS_P1;SDS_P2;PMS_P1;PMS_P2;Temp;Humidity;BMP_temperature;BMP_pressure;BME280_temperature;BME280_humidity;BME280_pressure;Samples;Min_cycle;Max_cycle;Signal;HPM_P1;HPM_P2
2022/01/14 00:00:01;;;;;;;37.90;17.65;;;;;;;-2.66;63.27;101457.84;5089578;28;20059;-20
2022/01/14 00:02:26;;;;;;;34.40;15.90;;;;;;;-2.54;62.46;101454.44;5089555;28;20833;-21
2022/01/14 00:04:52;;;;;;;36.13;16.58;;;;;;;-2.30;61.76;101453.78;5089745;28;20032;-20
2022/01/14 00:07:18;;;;;;;41.05;16.63;;;;;;;-2.60;62.65;101452.22;5071438;28;20047;-21
2022/01/14 00:09:43;;;;;;;35.75;16.75;;;;;;;-2.56;63.22;101448.50;5089475;28;20024;-21
2022/01/14 00:12:16;;;;;;;34.33;16.15;;;;;;;-2.65;63.29;101455.16;5071352;28;20028;-20
2022/01/14 00:14:45;;;;;;;35.88;15.98;;;;;;;-2.08;62.47;101448.81;5072288;28;20143;-21
2022/01/14 00:17:13;;;;;;;39.15;17.33;;;;;;;-2.26;62.33;101439.59;5089377;28;20068;-21
2022/01/14 00:19:39;;;;;;;34.38;15.82;;;;;;;-2.32;62.30;101437.38;5089083;28;20507;-21
2022/01/14 00:22:11;;;;;;;35.13;17.20;;;;;;;-2.32;62.27;101442.59;5089214;28;20032;-20
2022/01/14 00:35:18;;;;;;;38.00;16.48;;;;;;;-2.56;63.54;101450.28;5088642;28;20043;-21
2022/01/14 00:37:43;;;;;;;36.75;16.60;;;;;;;-2.36;63.46;101444.56;5088866;28;20032;-21
2022/01/14 00:40:09;;;;;;;37.88;17.88;;;;;;;-2.49;63.32;101433.28;5070676;28;20416;-21
2022/01/14 00:42:35;;;;;;;37.33;17.95;;;;;;;-2.58;63.21;101450.38;5088841;28;20510;-21
2022/01/14 00:45:00;;;;;;;39.13;17.30;;;;;;;-2.50;62.72;101416.75;5070570;28;20036;-20
2022/01/14 00:47:26;;;;;;;36.75;17.48;;;;;;;-2.02;62.17;101444.97;5070482;28;20476;-20
2022/01/14 00:49:51;;;;;;;35.03;17.55;;;;;;;-2.14;62.92;101428.31;5070409;28;20028;-21
2022/01/14 00:52:16;;;;;;;35.85;17.17;;;;;;;-2.25;62.99;101436.03;5070413;28;20043;-21
2022/01/14 00:54:42;;;;;;;39.40;18.33;;;;;;;-2.38;63.38;101440.41;5070689;28;20050;-20
2022/01/14 00:59:34;;;;;;;41.63;19.73;;;;;;;-2.05;63.44;101438.13;5088688;28;20466;-20
2022/01/14 01:02:00;;;;;;;43.67;19.35;;;;;;;-1.91;62.77;101437.22;5053792;28;20024;-20
2022/01/14 01:04:33;;;;;;;44.25;21.70;;;;;;;-1.89;61.71;101421.44;5087746;28;20040;-20
2022/01/14 01:06:59;;;;;;;42.72;19.85;;;;;;;-1.56;61.62;101430.50;5088343;28;20085;-21
2022/01/14 01:09:26;;;;;;;43.38;19.77;;;;;;;-1.69;61.60;101413.03;5070093;28;20036;-20
2022/01/14 01:12:08;;;;;;;38.75;18.70;;;;;;;-1.91;61.73;101412.84;5070276;28;20697;-20
2022/01/14 01:15:11;;;;;;;38.78;18.73;;;;;;;-2.16;62.45;101406.66;5088328;28;20028;-20
2022/01/14 01:17:26;;;;;;;35.35;17.63;;;;;;;-2.64;64.39;101424.66;5085107;28;20051;-20
2022/01/14 01:19:51;;;;;;;36.22;16.60;;;;;;;-3.02;65.27;101414.91;5088459;28;20040;-20
2022/01/14 01:22:17;;;;;;;40.17;17.83;;;;;;;-2.49;64.47;101418.44;5087964;28;20198;-20
2022/01/14 01:24:42;;;;;;;39.20;17.55;;;;;;;-2.05;62.90;101403.31;5088217;28;20112;-21
2022/01/14 01:27:09;;;;;;;35.45;16.17;;;;;;;-2.35;63.00;101403.59;5069717;28;20411;-20
2022/01/14 01:32:04;;;;;;;40.00;16.80;;;;;;;-2.47;64.33;101392.22;5088285;28;20042;-20
2022/01/14 01:34:30;;;;;;;40.03;16.65;;;;;;;-2.54;64.56;101373.47;5069410;28;20621;-21
2022/01/14 01:36:56;;;;;;;47.45;21.40;;;;;;;-2.18;63.25;101374.56;5088178;28;20028;-21
2022/01/14 01:39:24;;;;;;;47.83;21.35;;;;;;;-2.08;63.06;101393.91;5087921;28;20024;-20
2022/01/14 01:41:52;;;;;;;46.30;22.63;;;;;;;-2.16;63.70;101377.94;5088066;28;20027;-21
2022/01/14 01:44:18;;;;;;;43.10;19.90;;;;;;;-2.26;63.03;101382.09;5069389;28;20040;-21
2022/01/14 01:46:46;;;;;;;42.60;20.17;;;;;;;-2.71;64.30;101365.94;5087954;28;20059;-21
2022/01/14 01:49:11;;;;;;;40.00;18.38;;;;;;;-3.14;66.10;101324.38;5087226;28;20392;-20
2022/01/14 01:51:37;;;;;;;41.10;19.55;;;;;;;-2.99;66.80;101356.44;5069420;28;20078;-20
2022/01/14 01:54:03;;;;;;;43.33;19.48;;;;;;;-3.12;66.85;101359.03;5069443;28;20031;-21
2022/01/14 01:56:28;;;;;;;42.75;20.05;;;;;;;-3.19;66.61;101319.41;5069420;28;20042;-20
2022/01/14 01:58:56;;;;;;;45.58;20.08;;;;;;;-2.98;66.64;101355.50;5087476;28;20027;-21
2022/01/14 02:01:22;;;;;;;40.30;19.67;;;;;;;-2.65;65.46;101328.97;5087623;28;20032;-20
2022/01/14 02:03:47;;;;;;;44.83;20.80;;;;;;;-2.53;65.46;101351.66;5069836;28;20036;-21
2022/01/14 02:06:13;;;;;;;41.92;19.85;;;;;;;-2.31;64.02;101337.13;5069499;28;20035;-20
2022/01/14 02:08:38;;;;;;;39.83;19.20;;;;;;;-2.24;64.09;101343.63;5053730;28;20032;-21
2022/01/14 02:11:05;;;;;;;44.88;19.02;;;;;;;-2.72;64.81;101335.53;5091384;28;20042;-20
2022/01/14 02:13:31;;;;;;;40.80;19.70;;;;;;;-2.59;64.99;101328.56;5073155;28;20506;-21
2022/01/14 02:18:36;;;;;;;39.97;18.35;;;;;;;-2.63;66.05;101329.72;5091482;28;20087;-20
2022/01/14 02:26:53;;;;;;;42.88;20.42;;;;;;;-2.77;65.98;101314.13;5028378;28;20098;-20
2022/01/14 02:29:20;;;;;;;46.92;22.83;;;;;;;-2.64;65.55;101312.34;5028077;28;20030;-21
2022/01/14 02:31:45;;;;;;;46.17;22.75;;;;;;;-2.70;64.61;101295.31;5057880;28;20168;-20
2022/01/14 02:34:11;;;;;;;56.30;24.38;;;;;;;-2.54;65.65;101305.56;5090992;28;20488;-21
2022/01/14 02:36:44;;;;;;;53.35;25.15;;;;;;;-2.48;65.29;101299.09;5072951;28;20020;-20
2022/01/14 02:39:10;;;;;;;46.17;23.42;;;;;;;-2.98;67.04;101306.78;5073499;28;20036;-21
2022/01/14 02:41:36;;;;;;;48.17;23.30;;;;;;;-2.45;65.37;101296.28;5090982;28;20689;-21
2022/01/14 02:44:10;;;;;;;55.00;25.75;;;;;;;-3.49;67.88;101288.34;5090793;28;20032;-20
2022/01/14 02:46:49;;;;;;;46.58;23.40;;;;;;;-3.19;67.87;101266.41;5090621;28;20089;-20
2022/01/14 02:49:14;;;;;;;65.18;33.50;;;;;;;-3.98;70.25;101258.38;5090541;28;20032;-20
2022/01/14 02:51:39;;;;;;;51.72;25.63;;;;;;;-4.28;71.74;101261.09;5090532;28;20028;-20
2022/01/14 02:54:12;;;;;;;47.22;21.17;;;;;;;-3.70;70.11;101254.00;5072507;28;20114;-22
2022/01/14 02:56:38;;;;;;;47.78;21.20;;;;;;;-3.53;69.21;101272.03;5090474;28;20093;-20
2022/01/14 02:59:04;;;;;;;45.92;22.77;;;;;;;-3.63;69.48;101243.09;5071909;28;20040;-20
2022/01/14 03:01:30;;;;;;;48.45;22.52;;;;;;;-3.28;68.23;101268.69;5055744;28;20028;-21
2022/01/14 03:03:57;;;;;;;43.55;20.35;;;;;;;-3.18;67.29;101248.06;5072287;28;20129;-21
2022/01/14 03:06:22;;;;;;;50.83;23.27;;;;;;;-2.95;67.66;101254.34;5072534;28;20063;-21
2022/01/14 03:08:47;;;;;;;52.60;23.77;;;;;;;-3.04;67.37;101260.19;5072080;28;20090;-21
2022/01/14 03:11:19;;;;;;;46.10;21.85;;;;;;;-3.02;67.68;101245.28;5055677;28;20419;-20
2022/01/14 03:13:45;;;;;;;50.28;23.33;;;;;;;-2.90;66.96;101218.34;5071384;28;20121;-20
2022/01/14 03:16:10;;;;;;;47.80;24.88;;;;;;;-2.77;66.04;101230.56;5055640;28;20093;-20
2022/01/14 03:21:14;;;;;;;51.50;22.60;;;;;;;-3.06;66.96;101235.97;5089647;28;20038;-20
2022/01/14 03:23:47;;;;;;;45.40;23.05;;;;;;;-3.30;68.19;101202.72;5090116;28;20036;-20
2022/01/14 03:26:13;;;;;;;56.90;24.73;;;;;;;-3.36;68.56;101187.47;5090009;28;20034;-21
2022/01/14 03:28:38;;;;;;;53.60;22.83;;;;;;;-3.03;66.93;101181.78;5071895;28;20119;-20
2022/01/14 03:31:04;;;;;;;45.58;20.33;;;;;;;-3.00;66.72;101191.19;5089992;28;20795;-20
2022/01/14 03:33:31;;;;;;;43.10;21.40;;;;;;;-2.79;66.44;101190.69;5090219;28;20035;-21
2022/01/14 03:35:56;;;;;;;78.55;34.28;;;;;;;-2.77;65.69;101167.91;5071573;28;20036;-21
2022/01/14 03:38:21;;;;;;;44.60;19.42;;;;;;;-2.63;64.91;101186.06;5071735;28;20093;-20
2022/01/14 03:40:47;;;;;;;38.78;18.17;;;;;;;-2.94;66.09;101190.78;5071467;28;20039;-21
2022/01/14 03:43:12;;;;;;;40.08;18.98;;;;;;;-3.24;67.43;101183.22;5071990;28;20032;-21
2022/01/14 03:45:41;;;;;;;42.13;18.35;;;;;;;-3.13;67.51;101182.50;5089864;28;20523;-20
2022/01/14 03:48:06;;;;;;;;;;;;;;;-3.30;67.80;101179.25;5072537;28;20059;-20
2022/01/14 03:50:33;;;;;;;40.08;17.27;;;;;;;-3.33;68.32;101165.56;5089561;28;20391;-21
2022/01/14 03:52:59;;;;;;;38.63;17.48;;;;;;;-3.26;68.32;101167.66;5089259;28;20089;-19
2022/01/14 03:55:25;;;;;;;42.45;18.85;;;;;;;-3.48;69.00;101146.56;5070943;28;20446;-21
2022/01/14 03:57:50;;;;;;;39.33;18.33;;;;;;;-3.33;68.89;101166.41;5089773;28;20032;-20
2022/01/14 04:00:17;;;;;;;40.63;18.48;;;;;;;-3.38;69.15;101168.50;5089419;28;20032;-20
2022/01/14 04:02:44;;;;;;;40.42;18.80;;;;;;;-3.16;68.86;101180.13;5089627;28;20028;-21
2022/01/14 04:05:11;;;;;;;41.70;18.20;;;;;;;-3.20;68.59;101181.25;5088416;28;20036;-20
2022/01/14 04:07:36;;;;;;;36.55;17.73;;;;;;;-2.99;67.65;101185.03;5089111;28;20028;-19
2022/01/14 04:10:03;;;;;;;39.60;17.42;;;;;;;-3.37;69.48;101171.91;5070946;28;20043;-20
2022/01/14 04:13:18;;;;;;;44.55;18.08;;;;;;;-3.37;68.97;101159.75;5089284;28;20492;-20
2022/01/14 04:17:59;;;;;;;36.75;15.82;;;;;;;-3.22;68.83;101175.31;5073652;28;20094;-21
2022/01/14 04:20:25;;;;;;;37.17;15.82;;;;;;;-3.31;69.12;101168.91;5089114;28;20450;-22
2022/01/14 04:22:51;;;;;;;37.78;18.27;;;;;;;-3.75;69.93;101118.75;5088946;28;20027;-21
2022/01/14 04:25:16;;;;;;;40.70;18.35;;;;;;;-3.27;69.56;101163.41;5070342;28;20051;-20
2022/01/14 04:27:42;;;;;;;39.50;17.02;;;;;;;-3.31;69.26;101138.47;5088867;28;20036;-20
2022/01/14 04:30:08;;;;;;;39.78;17.45;;;;;;;-3.19;69.70;101152.44;5070872;28;20028;-22
2022/01/14 04:32:34;;;;;;;39.50;17.85;;;;;;;-3.00;69.13;101141.59;5069518;28;20055;-21
2022/01/14 04:34:59;;;;;;;42.85;19.52;;;;;;;-2.99;68.34;101140.66;5088373;28;20476;-21
2022/01/14 04:37:24;;;;;;;37.17;17.60;;;;;;;-2.89;68.49;101153.91;5087483;28;20381;-20
2022/01/14 04:39:50;;;;;;;45.22;21.52;;;;;;;-3.13;69.19;101151.19;5088743;28;20035;-20
2022/01/14 04:42:15;;;;;;;35.35;17.08;;;;;;;-3.22;68.98;101125.75;5070514;28;20476;-20
2022/01/14 04:44:41;;;;;;;34.20;17.27;;;;;;;-3.07;69.02;101140.34;5070265;28;20039;-21
2022/01/14 04:47:18;;;;;;;35.63;17.65;;;;;;;-3.09;68.91;101134.38;5070068;28;20113;-20
2022/01/14 04:49:44;;;;;;;34.88;17.58;;;;;;;-2.89;67.79;101140.88;5088187;28;20028;-21
2022/01/14 04:52:09;;;;;;;38.58;17.58;;;;;;;-2.71;67.53;101130.94;5088486;28;20035;-21
2022/01/14 04:54:35;;;;;;;37.13;16.60;;;;;;;-2.69;67.02;101135.09;5069852;28;20480;-20
2022/01/14 04:57:01;;;;;;;52.75;26.25;;;;;;;-2.87;67.78;101150.25;5069876;28;20040;-20
2022/01/14 04:59:27;;;;;;;71.47;35.58;;;;;;;-3.49;69.67;101124.03;5070010;28;20031;-20
2022/01/14 05:01:54;;;;;;;79.32;42.35;;;;;;;-3.06;69.13;101155.06;5088246;28;20039;-20
2022/01/14 05:04:19;;;;;;;55.55;27.33;;;;;;;-3.29;69.78;101128.75;5070284;28;20032;-20
2022/01/14 05:06:49;;;;;;;55.42;25.95;;;;;;;-3.17;69.01;101136.69;5087484;28;20660;-20
2022/01/14 05:09:26;;;;;;;49.97;24.25;;;;;;;-3.34;69.78;101154.31;5088085;28;20036;-20
2022/01/14 05:11:57;;;;;;;62.40;33.10;;;;;;;-3.47;70.56;101150.84;5088065;28;20047;-21
2022/01/14 05:14:23;;;;;;;61.78;32.85;;;;;;;-3.34;70.09;101143.88;5070847;28;20039;-20
2022/01/14 05:16:48;;;;;;;60.83;30.63;;;;;;;-3.10;69.92;101143.16;5087512;28;20040;-20
2022/01/14 05:19:14;;;;;;;55.20;28.15;;;;;;;-3.56;70.38;101122.75;5069270;28;20052;-20
2022/01/14 05:21:39;;;;;;;46.55;25.70;;;;;;;-3.05;69.21;101135.84;5069875;28;20491;-20
2022/01/14 05:24:05;;;;;;;54.63;26.58;;;;;;;-3.21;69.46;101133.44;5087843;28;20408;-21
2022/01/14 05:26:30;;;;;;;61.40;30.00;;;;;;;-3.29;70.16;101146.16;5087791;28;20036;-20
2022/01/14 05:28:56;;;;;;;59.33;30.10;;;;;;;-3.29;70.07;101141.81;5087680;28;20055;-20
2022/01/14 05:31:41;;;;;;;64.00;28.15;;;;;;;-3.07;69.96;101142.94;5069512;28;20070;-21
2022/01/14 05:34:07;;;;;;;62.65;30.50;;;;;;;-2.94;68.51;101145.56;5070046;28;20039;-20
2022/01/14 05:36:32;;;;;;;51.10;24.63;;;;;;;-2.79;68.00;101135.84;5087720;28;20024;-20
2022/01/14 05:38:58;;;;;;;52.28;22.45;;;;;;;-2.59;66.22;101148.38;5087374;28;20043;-20
2022/01/14 05:41:24;;;;;;;43.75;21.20;;;;;;;-2.67;66.86;101127.16;5087667;28;20476;-21
2022/01/14 05:43:49;;;;;;;40.97;18.02;;;;;;;-2.67;66.88;101127.16;5087194;28;20036;-21
2022/01/14 05:46:15;;;;;;;50.15;21.25;;;;;;;-2.89;67.39;101117.38;5087782;28;20055;-20
2022/01/14 05:48:40;;;;;;;42.80;19.35;;;;;;;-3.04;67.38;101117.50;5087752;28;20035;-20
2022/01/14 05:51:06;;;;;;;46.72;21.95;;;;;;;-3.54;69.48;101134.75;5087429;28;20480;-21
2022/01/14 05:53:31;;;;;;;51.20;22.42;;;;;;;-3.18;68.81;101120.19;5069278;28;20036;-21
2022/01/14 05:55:57;;;;;;;54.55;22.63;;;;;;;-2.90;67.62;101111.31;5069338;28;20080;-20
2022/01/14 05:58:22;;;;;;;42.97;19.40;;;;;;;-2.94;67.82;101099.44;5069005;28;20028;-20
2022/01/14 06:00:48;;;;;;;42.88;18.35;;;;;;;-3.22;68.48;101110.09;5087765;28;20465;-21
2022/01/14 06:03:13;;;;;;;41.83;19.98;;;;;;;-3.08;68.65;101107.38;5087308;28;20028;-20
2022/01/14 06:05:38;;;;;;;46.08;18.60;;;;;;;-2.94;68.32;101103.78;5087429;28;20028;-20
2022/01/14 06:08:05;;;;;;;55.47;27.20;;;;;;;-3.03;68.75;101105.25;5069305;28;20043;-20
2022/01/14 06:10:31;;;;;;;62.72;28.33;;;;;;;-2.93;68.16;101074.16;5068963;28;20031;-21
2022/01/14 06:12:56;;;;;;;57.00;27.70;;;;;;;-2.97;68.40;101094.41;5068643;28;20048;-21
2022/01/14 06:15:22;;;;;;;60.50;28.33;;;;;;;-3.54;70.80;101100.03;5087066;28;20032;-20
2022/01/14 06:17:47;;;;;;;78.22;34.85;;;;;;;-3.48;70.95;101091.78;5086795;28;20047;-21
2022/01/14 06:20:14;;;;;;;49.40;22.92;;;;;;;-3.66;71.57;101089.50;5087523;28;20039;-20
2022/01/14 06:22:39;;;;;;;45.45;21.38;;;;;;;-3.60;71.66;101079.59;5087005;28;20032;-20
2022/01/14 06:25:06;;;;;;;50.45;22.63;;;;;;;-3.53;71.45;101080.84;5086856;28;20047;-20
2022/01/14 06:27:32;;;;;;;43.60;21.98;;;;;;;-3.24;71.56;101082.31;5069041;28;20036;-20
2022/01/14 06:29:59;;;;;;;42.83;20.63;;;;;;;-2.66;69.20;101074.00;5069228;28;20111;-20
2022/01/14 06:32:25;;;;;;;39.40;17.83;;;;;;;-2.68;68.29;101057.59;5086927;28;20127;-20
2022/01/14 06:34:50;;;;;;;34.95;17.30;;;;;;;-2.44;68.59;101071.50;5087248;28;20031;-20
2022/01/14 06:37:16;;;;;;;38.65;18.40;;;;;;;-2.69;68.57;101048.09;5086904;28;20035;-21
2022/01/14 06:39:41;;;;;;;37.90;17.50;;;;;;;-2.74;69.69;101063.25;5086974;28;20028;-21
2022/01/14 06:42:07;;;;;;;41.10;17.05;;;;;;;-2.56;69.69;101061.94;5086604;28;20067;-20
2022/01/14 06:44:32;;;;;;;36.75;17.20;;;;;;;-2.87;70.57;101043.22;5069066;28;20044;-20
2022/01/14 06:46:58;;;;;;;34.03;16.50;;;;;;;-2.16;68.37;101059.09;5068475;28;20067;-20
2022/01/14 06:49:23;;;;;;;55.30;24.83;;;;;;;-2.19;68.48;101058.47;5086661;28;20035;-21
2022/01/14 06:51:49;;;;;;;56.78;26.40;;;;;;;-2.01;69.03;101059.72;5068601;28;20032;-21
2022/01/14 06:54:14;;;;;;;400.23;156.15;;;;;;;-1.69;67.29;101057.34;5087158;28;20035;-20
2022/01/14 06:56:40;;;;;;;132.30;71.32;;;;;;;-2.03;67.86;101054.59;5072322;28;20035;-20
2022/01/14 06:59:06;;;;;;;90.00;50.28;;;;;;;-2.27;69.44;101061.63;5090856;28;20040;-20
2022/01/14 07:01:31;;;;;;;97.22;47.55;;;;;;;-2.17;69.94;101064.41;5090796;28;20546;-21
2022/01/14 07:03:57;;;;;;;91.85;43.10;;;;;;;-1.81;68.22;101060.88;5072319;28;20032;-22
2022/01/14 07:06:22;;;;;;;68.05;35.05;;;;;;;-1.52;67.41;101055.25;5090524;28;20028;-21
2022/01/14 07:08:47;;;;;;;84.38;48.42;;;;;;;-1.03;65.37;101061.94;5090458;28;20032;-20
2022/01/14 07:11:14;;;;;;;76.93;40.67;;;;;;;-1.09;65.43;101076.34;5090080;28;20468;-20
2022/01/14 07:13:39;;;;;;;61.90;31.05;;;;;;;-0.77;65.34;101069.56;5090734;28;20085;-20
2022/01/14 07:16:05;;;;;;;56.72;26.88;;;;;;;-0.86;64.29;101071.09;5072185;28;20063;-20
2022/01/14 07:18:31;;;;;;;53.33;25.60;;;;;;;-0.53;63.59;101030.94;5090249;28;20048;-21
2022/01/14 07:20:56;;;;;;;55.97;27.63;;;;;;;-0.32;63.78;101043.28;5071872;28;20032;-21
2022/01/14 07:23:21;;;;;;;60.03;28.85;;;;;;;-0.43;63.78;101039.72;5090126;28;20926;-21
2022/01/14 07:25:47;;;;;;;62.17;30.23;;;;;;;-0.69;65.67;101035.75;5071985;28;20032;-20
2022/01/14 07:28:12;;;;;;;64.10;28.55;;;;;;;-0.39;64.70;101027.19;5071657;28;20039;-21
2022/01/14 07:30:38;;;;;;;80.95;35.78;;;;;;;-0.55;64.74;101025.00;5089889;28;20522;-20
2022/01/14 07:33:03;;;;;;;140.55;53.85;;;;;;;-0.39;65.04;101023.75;5071499;28;20028;-20
2022/01/14 07:35:29;;;;;;;134.15;54.67;;;;;;;-0.31;63.17;101008.22;5071662;28;20032;-24
2022/01/14 07:37:54;;;;;;;64.13;29.35;;;;;;;-0.48;64.00;101007.81;5089816;28;20035;-21
2022/01/14 07:40:20;;;;;;;61.05;28.92;;;;;;;-0.28;64.07;101013.25;5089831;28;20028;-20
2022/01/14 07:42:45;;;;;;;49.40;23.65;;;;;;;-0.56;65.19;100989.25;5089824;28;20024;-20
2022/01/14 07:45:11;;;;;;;68.30;30.02;;;;;;;-0.46;65.74;101003.28;5071627;28;20062;-20
2022/01/14 07:47:37;;;;;;;56.78;26.17;;;;;;;-0.39;65.80;100994.91;5089824;28;20571;-20
2022/01/14 07:50:02;;;;;;;154.43;61.55;;;;;;;-0.38;65.30;100976.44;5089447;28;20039;-20
2022/01/14 07:52:28;;;;;;;82.63;41.70;;;;;;;0.11;62.58;101003.03;5054821;28;20523;-21
2022/01/14 07:54:53;;;;;;;172.30;101.13;;;;;;;0.51;62.30;100999.66;5071337;28;20042;-21
2022/01/14 07:57:19;;;;;;;65.95;36.63;;;;;;;0.66;61.85;100971.31;5089211;28;20036;-21
2022/01/14 07:59:44;;;;;;;24.17;12.77;;;;;;;1.28;57.58;100978.09;5071462;28;20491;-20
2022/01/14 08:02:10;;;;;;;26.13;12.70;;;;;;;1.33;56.33;100981.16;5089649;28;20035;-20
2022/01/14 08:04:37;;;;;;;18.10;9.50;;;;;;;1.30;54.51;100959.56;5071222;28;20036;-20
2022/01/14 08:07:09;;;;;;;20.95;11.27;;;;;;;1.51;55.58;100964.69;5087870;28;20036;-20
2022/01/14 08:09:41;;;;;;;22.90;9.98;;;;;;;1.59;54.05;100957.81;5071655;28;20385;-20
2022/01/14 08:12:07;;;;;;;20.05;8.45;;;;;;;1.59;52.71;100960.44;5071097;28;20036;-21
2022/01/14 08:14:33;;;;;;;21.33;9.50;;;;;;;1.72;54.33;100956.69;5089164;28;20407;-20
2022/01/14 08:16:59;;;;;;;23.35;10.68;;;;;;;1.63;52.51;100923.34;5088861;28;20051;-20
2022/01/14 08:19:24;;;;;;;27.27;11.80;;;;;;;1.82;53.33;100947.00;5070934;28;20044;-20
2022/01/14 08:21:50;;;;;;;32.17;12.27;;;;;;;1.89;51.61;100942.81;5065737;28;20135;-20
2022/01/14 08:24:15;;;;;;;28.88;13.38;;;;;;;2.15;51.84;100940.44;5061009;28;20032;-20
2022/01/14 08:26:41;;;;;;;20.55;9.32;;;;;;;2.25;52.16;100929.03;5059798;28;20024;-20
2022/01/14 08:29:07;;;;;;;40.25;16.35;;;;;;;2.20;51.77;100937.34;5059593;28;20040;-20
2022/01/14 08:31:33;;;;;;;33.25;13.88;;;;;;;2.19;51.63;100931.28;5079090;28;20038;-21
2022/01/14 08:33:58;;;;;;;24.50;10.73;;;;;;;2.32;52.25;100915.16;5077107;28;20048;-20
2022/01/14 08:36:27;;;;;;;27.73;10.73;;;;;;;2.49;51.04;100910.09;5058972;28;20023;-20
2022/01/14 08:38:52;;;;;;;19.10;9.57;;;;;;;2.40;51.58;100917.88;5079962;28;20040;-20
2022/01/14 08:41:18;;;;;;;23.27;11.38;;;;;;;2.42;52.09;100883.53;5088232;28;20173;-20
2022/01/14 08:43:46;;;;;;;19.13;11.05;;;;;;;2.69;51.18;100895.84;5087938;28;20039;-20
2022/01/14 08:46:13;;;;;;;15.82;7.65;;;;;;;2.63;49.97;100899.09;5069464;28;20881;-20
2022/01/14 08:48:38;;;;;;;18.70;8.80;;;;;;;2.51;51.80;100903.72;5068122;28;20043;-20
2022/01/14 08:51:04;;;;;;;21.73;9.90;;;;;;;2.36;51.63;100868.31;5067802;28;20403;-21
2022/01/14 08:53:29;;;;;;;18.17;9.02;;;;;;;2.74;51.63;100887.53;5066280;28;20051;-20
2022/01/14 08:55:55;;;;;;;19.13;9.82;;;;;;;2.83;51.61;100885.81;5068197;28;20082;-20
2022/01/14 08:58:20;;;;;;;16.60;8.88;;;;;;;2.83;51.17;100873.47;5068185;28;20107;-20
2022/01/14 09:00:48;;;;;;;19.58;9.77;;;;;;;2.97;51.39;100874.78;5067845;28;20499;-20
2022/01/14 09:03:13;;;;;;;20.65;10.35;;;;;;;2.73;51.63;100860.34;5067512;28;20034;-20
2022/01/14 09:05:39;;;;;;;22.83;11.30;;;;;;;2.84;51.68;100863.75;5067836;28;20040;-19
2022/01/14 09:08:04;;;;;;;17.20;8.70;;;;;;;3.10;51.85;100848.03;5049648;28;20115;-20
2022/01/14 09:10:30;;;;;;;22.83;9.80;;;;;;;3.12;52.85;100831.09;5067696;28;20503;-20
2022/01/14 09:12:55;;;;;;;17.42;8.68;;;;;;;3.22;50.64;100834.47;5067833;28;20036;-20
2022/01/14 09:15:20;;;;;;;16.00;8.68;;;;;;;3.38;51.58;100811.88;5049505;28;20021;-20
2022/01/14 09:17:46;;;;;;;21.20;9.30;;;;;;;3.48;51.62;100817.88;5037007;28;20123;-20
2022/01/14 09:20:12;;;;;;;15.65;8.45;;;;;;;3.46;50.49;100805.84;5074043;28;20059;-20
2022/01/14 09:22:38;;;;;;;18.17;8.50;;;;;;;3.62;51.39;100800.66;5060536;28;20105;-20
2022/01/14 09:25:04;;;;;;;19.60;9.13;;;;;;;3.73;51.58;100778.47;5075335;28;20113;-20
2022/01/14 09:27:30;;;;;;;20.05;9.40;;;;;;;3.87;51.79;100800.81;5067593;28;20120;-20
2022/01/14 09:29:56;;;;;;;18.63;9.52;;;;;;;3.79;51.97;100756.72;5049418;28;20031;-20
2022/01/14 09:32:22;;;;;;;17.98;8.45;;;;;;;4.14;52.74;100791.84;5032933;28;20577;-20
2022/01/14 09:34:47;;;;;;;18.48;9.35;;;;;;;3.98;51.97;100788.16;5067511;28;20032;-20
2022/01/14 09:37:13;;;;;;;17.52;10.00;;;;;;;4.09;52.91;100788.88;5066735;28;20024;-20
2022/01/14 09:39:43;;;;;;;13.88;7.53;;;;;;;4.20;52.90;100780.66;5067503;28;20028;-20
2022/01/14 09:42:08;;;;;;;20.20;10.43;;;;;;;4.50;52.01;100754.69;5067403;28;20029;-20
2022/01/14 09:44:34;;;;;;;21.50;10.07;;;;;;;4.49;52.21;100769.66;5067445;28;20125;-19
2022/01/14 09:46:59;;;;;;;19.13;9.40;;;;;;;4.77;51.37;100769.41;5048859;28;20043;-20
2022/01/14 09:49:25;;;;;;;18.77;9.60;;;;;;;4.58;51.54;100773.19;5066829;28;20488;-20
2022/01/14 09:51:50;;;;;;;16.40;8.90;;;;;;;4.66;52.96;100759.13;5066999;28;20040;-21
2022/01/14 09:54:16;;;;;;;16.70;8.15;;;;;;;4.69;52.32;100759.66;5067218;28;20048;-20
2022/01/14 09:56:41;;;;;;;19.67;9.98;;;;;;;4.76;53.55;100751.88;5049346;28;20037;-20
2022/01/14 09:59:07;;;;;;;24.73;11.07;;;;;;;4.67;52.30;100718.53;5048922;28;20035;-20
2022/01/14 10:01:40;;;;;;;19.05;9.80;;;;;;;4.85;53.29;100744.81;5067023;28;20077;-20
2022/01/14 10:04:06;;;;;;;19.75;8.55;;;;;;;4.87;53.71;100734.91;5073311;28;20740;-20
2022/01/14 10:06:49;;;;;;;16.45;9.07;;;;;;;4.88;53.82;100725.97;5069400;28;20537;-20
2022/01/14 10:09:16;;;;;;;22.05;10.45;;;;;;;5.26;53.45;100713.88;5071055;28;20028;-20
2022/01/14 10:11:43;;;;;;;17.40;8.90;;;;;;;5.55;53.35;100702.72;5075575;28;20036;-19
2022/01/14 10:14:13;;;;;;;19.80;9.80;;;;;;;5.78;54.08;100689.59;5043821;28;20492;-19
2022/01/14 10:16:41;;;;;;;18.30;10.18;;;;;;;5.46;52.72;100676.47;5066734;28;20033;-19
2022/01/14 10:19:27;;;;;;;19.05;9.32;;;;;;;5.75;53.27;100681.16;5066746;28;20508;-20
2022/01/14 10:21:53;;;;;;;14.75;7.68;;;;;;;5.75;51.93;100673.22;5048660;28;20087;-20
2022/01/14 10:24:18;;;;;;;15.27;7.90;;;;;;;6.06;53.44;100685.66;5048568;28;20044;-20
2022/01/14 10:26:52;;;;;;;18.90;9.68;;;;;;;6.26;52.50;100673.63;5066821;28;20036;-19
2022/01/14 10:29:38;;;;;;;17.20;9.93;;;;;;;6.04;52.90;100684.00;5066963;28;20559;-20
2022/01/14 10:32:05;;;;;;;14.60;7.65;;;;;;;5.94;53.41;100662.19;5070914;28;20078;-20
2022/01/14 10:34:30;;;;;;;18.98;9.52;;;;;;;6.49;53.08;100646.31;5054304;28;20520;-20
2022/01/14 10:37:13;;;;;;;15.15;9.13;;;;;;;6.63;52.39;100632.28;5090995;28;20032;-19
2022/01/14 10:39:50;;;;;;;16.67;9.23;;;;;;;6.70;52.22;100627.09;5090672;28;20032;-19
2022/01/14 10:42:34;;;;;;;17.15;9.52;;;;;;;6.99;51.87;100595.31;5090937;28;20130;-19
2022/01/14 10:45:19;;;;;;;19.27;10.48;;;;;;;7.53;51.92;100634.00;5090862;28;20278;-19
2022/01/14 10:48:05;;;;;;;15.98;7.80;;;;;;;7.02;52.07;100631.25;5090736;28;20028;-19
2022/01/14 10:51:06;;;;;;;15.15;9.00;;;;;;;7.18;52.81;100636.38;5090808;28;20184;-20
2022/01/14 10:53:39;;;;;;;16.77;9.18;;;;;;;7.79;51.91;100638.00;4988244;28;20081;-19
2022/01/14 10:56:09;;;;;;;13.88;7.97;;;;;;;7.97;51.39;100638.41;5074432;28;20040;-19
2022/01/14 10:58:36;;;;;;;12.45;6.97;;;;;;;7.17;51.19;100626.78;5072600;28;20024;-19
2022/01/14 11:01:15;;;;;;;14.80;7.70;;;;;;;6.65;52.01;100619.69;5090294;28;20433;-20
2022/01/14 11:03:42;;;;;;;27.27;13.02;;;;;;;6.92;51.88;100610.28;5072252;28;20028;-19
2022/01/14 11:06:25;;;;;;;14.10;8.25;;;;;;;7.05;51.86;100599.06;5090611;28;20070;-20
2022/01/14 11:08:58;;;;;;;16.75;9.07;;;;;;;7.07;51.42;100596.22;5085194;28;20065;-20
2022/01/14 11:11:24;;;;;;;17.60;8.30;;;;;;;7.09;51.63;100578.28;5072141;28;20035;-20
2022/01/14 11:13:49;;;;;;;16.13;7.53;;;;;;;6.97;51.74;100589.38;5090463;28;20039;-20
2022/01/14 11:16:15;;;;;;;18.70;8.55;;;;;;;7.33;50.66;100578.00;5090348;28;20039;-19
2022/01/14 11:18:40;;;;;;;17.88;8.52;;;;;;;7.53;50.98;100559.69;5089928;28;20083;-20
2022/01/14 11:23:50;;;;;;;17.95;9.13;;;;;;;7.73;50.87;100561.75;5074965;28;20043;-20
2022/01/14 11:26:19;;;;;;;21.95;7.97;;;;;;;7.99;50.36;100548.72;5090477;28;20024;-20
2022/01/14 11:28:44;;;;;;;;;;;;;;;8.14;50.65;100556.63;5090345;28;20101;-20
2022/01/14 11:31:33;;;;;;;13.32;7.53;;;;;;;8.21;50.63;100551.38;5089800;28;20309;-20
2022/01/14 11:34:00;;;;;;;16.63;7.40;;;;;;;8.15;50.55;100552.13;5089351;28;20062;-19
2022/01/14 11:36:27;;;;;;;11.95;6.15;;;;;;;8.28;50.39;100540.81;5071856;28;20035;-19
2022/01/14 11:38:53;;;;;;;14.88;7.25;;;;;;;8.39;50.56;100543.75;5071210;28;20036;-19
2022/01/14 11:41:55;;;;;;;11.48;6.38;;;;;;;8.15;50.66;100528.22;5071023;28;20044;-21
2022/01/14 11:44:42;;;;;;;11.13;6.22;;;;;;;7.95;50.85;100536.84;5089466;28;20029;-19
2022/01/14 11:47:37;;;;;;;12.15;6.20;;;;;;;8.09;50.46;100521.00;5089238;28;20035;-19